Irvington, AL (36544)

10:54 AM CST on December 10, 2016 (GMT -0600)
Jamestown | | Change Station

Elev 95 ft 30.51 °N, 88.20 °W | Updated 4 seconds ago

Clear
Clear
48.0 °F
Feels Like 48 °F
N
0.4
Wind Variable Wind from SSE
Gusts 2.5 mph

Today
High -- | Low -- °F
--% Chance of Precip.
Yesterday
High -- | Low -- °F
Precip. -- in
Pressure 30.56 in
Visibility 10.0 miles
Clouds Clear
Windchill 48 °F
Dew Point 25 °F
Humidity 40%
Rainfall 0.00 in
Snow Depth Not available.
6:39 AM 4:52 PM
Waxing Gibbous, 85% visible
METAR KMOB 101556Z 05008KT 10SM CLR 06/M06 A3055 RMK AO2 SLP346 T00611056
Pressure 30.56 in
Visibility 10.0 miles
Clouds Clear
Windchill 48 °F
Dew Point 25 °F
Humidity 40%
Rainfall 0.00 in
Snow Depth Not available.
6:39 AM 4:52 PM
Waxing Gibbous, 85% visible
METAR KMOB 101556Z 05008KT 10SM CLR 06/M06 A3055 RMK AO2 SLP346 T00611056

10-Day Weather Forecast

Almanac

Astronomy

Dec. 10, 2016 Rise Set
Actual Time
Civil Twilight
Nautical Twilight
Astronomical Twilight
Moon
Length of Visible Light
Length of Day
Tomorrow will be .
, % of the Moon is Illuminated

Today's Extremes

State Highs State Lows

Community

WunderPhotos

Upload Photos

1,956,569 photos uploaded!

WunderBlog® & News

Nearby

Air Quality

  Air Quality AQ Index Pollutant
Not available.

Snow Depth

Station Depth Elevation

Earthquake Activity

City Distance Mag. Time & Date
Minimum magnitude displayed is 2.5.

Coastal Water Temperatures

Place Temperature

Stations

Nearby Weather Stations

Station Location Temp. Windchill Dew Point Humidity Wind Precip. Elev Updated Type
                   

Watches & Warnings

There are currently no watches in effect.